Time;durP1;ratioP1;P1;durP2;ratioP2;P2;SDS_P1;SDS_P2;PMS_P1;PMS_P2;Temp;Humidity;BMP_temperature;BMP_pressure;BME280_temperature;BME280_humidity;BME280_pressure;Samples;Min_cycle;Max_cycle;Signal;HPM_P1;HPM_P2
2020/12/03 00:01:03;;;;;;;41.35;23.27;;;-0.90;98.00;;;;;;5010823;28;20304;-68
2020/12/03 00:03:32;;;;;;;38.33;21.27;;;-0.90;98.00;;;;;;5012930;28;20334;-69
2020/12/03 00:06:27;;;;;;;36.00;22.00;;;-0.90;98.00;;;;;;5012151;28;20026;-70
2020/12/03 00:09:00;;;;;;;38.15;22.85;;;-0.90;98.00;;;;;;5012273;28;20030;-69
2020/12/03 00:11:30;;;;;;;35.10;21.15;;;-0.90;98.00;;;;;;5029004;28;20053;-69
2020/12/03 00:14:07;;;;;;;35.42;21.15;;;-0.90;98.00;;;;;;5017574;28;20108;-69
2020/12/03 00:16:34;;;;;;;36.42;21.15;;;-0.80;98.00;;;;;;5014240;28;20030;-69
2020/12/03 00:19:01;;;;;;;35.97;21.50;;;-0.80;98.00;;;;;;5014936;28;20030;-68
2020/12/03 00:21:59;;;;;;;34.13;21.48;;;-0.80;98.00;;;;;;5008848;28;20033;-69
2020/12/03 00:24:35;;;;;;;37.00;21.92;;;-0.80;98.00;;;;;;5011457;28;20045;-69
2020/12/03 00:27:15;;;;;;;33.17;21.20;;;-0.80;98.00;;;;;;5011986;28;20322;-68
2020/12/03 00:29:41;;;;;;;38.80;22.40;;;-0.80;98.00;;;;;;5013316;28;20026;-68
2020/12/03 00:32:12;;;;;;;32.20;20.67;;;-0.80;98.00;;;;;;5010818;28;20037;-68
2020/12/03 00:34:47;;;;;;;38.60;21.40;;;-0.90;98.00;;;;;;5012176;28;20030;-70
2020/12/03 00:37:15;;;;;;;39.35;22.45;;;-0.80;98.00;;;;;;5012010;28;20034;-70
2020/12/03 00:39:41;;;;;;;35.03;22.27;;;-0.90;98.00;;;;;;5013336;28;20045;-69
2020/12/03 00:42:09;;;;;;;35.00;22.25;;;-0.90;98.00;;;;;;5010941;28;20025;-69
2020/12/03 00:44:35;;;;;;;39.72;20.92;;;-0.80;98.00;;;;;;5011801;28;20038;-70
2020/12/03 00:47:02;;;;;;;35.50;21.80;;;-0.80;98.00;;;;;;5009507;28;20038;-69
2020/12/03 00:49:30;;;;;;;35.88;21.92;;;-0.80;98.00;;;;;;5012452;28;20093;-69
2020/12/03 00:51:56;;;;;;;33.45;20.67;;;-0.90;98.00;;;;;;5011519;28;20048;-69
2020/12/03 00:54:24;;;;;;;40.58;22.38;;;-0.90;98.00;;;;;;5012410;28;20049;-69
2020/12/03 00:56:52;;;;;;;35.85;21.80;;;-0.80;98.00;;;;;;5011549;28;20119;-69
2020/12/03 00:59:20;;;;;;;35.97;24.00;;;-0.80;98.00;;;;;;5011895;28;20033;-69
2020/12/03 01:01:46;;;;;;;43.58;25.30;;;-0.80;98.00;;;;;;5010939;28;20030;-69
2020/12/03 01:04:14;;;;;;;47.97;27.08;;;-0.80;98.00;;;;;;5011400;28;20156;-69
2020/12/03 01:06:47;;;;;;;41.85;25.35;;;-0.80;98.00;;;;;;5026849;28;20030;-69
2020/12/03 01:09:14;;;;;;;40.42;23.95;;;-0.80;98.00;;;;;;5011719;28;20030;-69
2020/12/03 01:11:48;;;;;;;42.00;24.60;;;-0.80;98.00;;;;;;5009823;28;20034;-69
2020/12/03 01:14:16;;;;;;;38.72;24.50;;;-0.80;98.00;;;;;;5010425;28;20029;-69
2020/12/03 01:16:47;;;;;;;35.10;21.90;;;-0.80;98.00;;;;;;5010110;28;20038;-69
2020/12/03 01:19:16;;;;;;;40.92;23.48;;;-0.80;98.00;;;;;;5010428;28;20037;-69
2020/12/03 01:21:42;;;;;;;37.85;22.65;;;-0.80;98.00;;;;;;5011120;28;20026;-69
2020/12/03 01:24:10;;;;;;;42.10;24.10;;;-0.80;98.00;;;;;;5010333;28;20036;-69
2020/12/03 01:26:36;;;;;;;41.72;22.02;;;-0.80;98.00;;;;;;5010538;28;20079;-69
2020/12/03 01:29:01;;;;;;;34.53;21.58;;;-0.80;98.00;;;;;;5010416;28;20113;-69
2020/12/03 01:31:31;;;;;;;33.47;21.35;;;-0.80;98.00;;;;;;5008818;28;20033;-69
2020/12/03 01:33:58;;;;;;;32.30;20.85;;;-0.80;98.00;;;;;;5010702;28;20030;-69
2020/12/03 01:36:24;;;;;;;28.88;20.15;;;-0.80;98.00;;;;;;5010821;28;20507;-69
2020/12/03 01:38:50;;;;;;;36.50;21.77;;;-0.80;98.00;;;;;;5011358;28;20026;-69
2020/12/03 01:41:15;;;;;;;29.50;18.63;;;-0.80;98.00;;;;;;5010989;28;20172;-69
2020/12/03 01:43:42;;;;;;;31.60;20.48;;;-0.80;98.00;;;;;;5011015;28;20028;-69
2020/12/03 01:46:18;;;;;;;;;;;;;;;;;;;;;
2020/12/03 01:49:00;;;;;;;31.35;19.50;;;-0.80;98.00;;;;;;5010721;28;20045;-69
2020/12/03 01:51:37;;;;;;;27.17;18.63;;;-0.90;98.00;;;;;;5009955;28;20088;-69
2020/12/03 01:54:06;;;;;;;28.95;18.98;;;-0.80;98.00;;;;;;5011004;28;20030;-69
2020/12/03 01:56:37;;;;;;;24.83;18.25;;;-0.80;98.00;;;;;;5010437;28;20635;-69
2020/12/03 01:59:05;;;;;;;24.25;16.60;;;-0.80;98.00;;;;;;5026790;28;20092;-69
2020/12/03 02:01:31;;;;;;;27.10;17.35;;;-0.80;98.00;;;;;;5009920;28;20045;-69
2020/12/03 02:03:57;;;;;;;23.40;16.25;;;-0.80;98.00;;;;;;5010583;28;20030;-69
2020/12/03 02:06:28;;;;;;;30.63;16.15;;;-0.80;98.00;;;;;;5010645;28;20037;-69
2020/12/03 02:08:56;;;;;;;25.83;15.63;;;-0.80;98.00;;;;;;5010322;28;20040;-69
2020/12/03 02:11:23;;;;;;;32.33;16.00;;;-0.70;98.00;;;;;;5010314;28;20048;-69
2020/12/03 02:14:15;;;;;;;24.38;15.68;;;-0.70;98.00;;;;;;5009763;28;20628;-69
2020/12/03 02:16:42;;;;;;;20.48;14.30;;;-0.70;98.00;;;;;;5009217;28;20030;-69
2020/12/03 02:19:21;;;;;;;20.35;14.40;;;-0.70;98.00;;;;;;5010690;28;20065;-69
2020/12/03 02:22:13;;;;;;;23.05;15.55;;;-0.70;98.00;;;;;;5010292;28;20030;-69
2020/12/03 02:24:44;;;;;;;23.00;15.63;;;-0.70;98.00;;;;;;5009105;28;20053;-69
2020/12/03 02:27:16;;;;;;;23.17;14.65;;;-0.70;98.00;;;;;;5010799;28;20022;-70
2020/12/03 02:29:41;;;;;;;24.42;14.27;;;-0.70;98.00;;;;;;5010722;28;20419;-69
2020/12/03 02:32:13;;;;;;;20.73;14.07;;;-0.70;98.00;;;;;;5009300;28;20080;-69
2020/12/03 02:34:48;;;;;;;21.10;13.57;;;-0.70;98.00;;;;;;5009448;28;20084;-69
2020/12/03 02:37:14;;;;;;;18.67;12.93;;;-0.60;98.00;;;;;;5008812;28;20033;-69
2020/12/03 02:39:40;;;;;;;20.55;12.13;;;-0.60;98.00;;;;;;5010358;28;20334;-69
2020/12/03 02:42:09;;;;;;;15.55;11.32;;;-0.60;98.00;;;;;;5010425;28;20034;-70
2020/12/03 02:44:38;;;;;;;15.98;11.05;;;-0.60;98.00;;;;;;5010985;28;20029;-69
2020/12/03 02:47:03;;;;;;;15.90;11.25;;;-0.60;98.00;;;;;;5009146;28;20450;-69
2020/12/03 02:49:29;;;;;;;15.82;10.80;;;-0.60;98.00;;;;;;5010500;28;20022;-69
2020/12/03 02:52:05;;;;;;;16.20;11.38;;;-0.50;98.00;;;;;;5009814;28;20156;-69
2020/12/03 02:54:31;;;;;;;18.40;11.48;;;-0.50;98.00;;;;;;5009487;28;20061;-69
2020/12/03 02:56:59;;;;;;;15.60;11.10;;;-0.60;98.00;;;;;;5009979;28;20058;-69
2020/12/03 02:59:27;;;;;;;17.65;11.73;;;-0.60;98.00;;;;;;5009892;28;20446;-69
2020/12/03 03:01:52;;;;;;;17.42;12.35;;;-0.60;98.00;;;;;;5008662;28;20351;-70
2020/12/03 03:04:18;;;;;;;19.65;12.55;;;-0.60;98.00;;;;;;5010394;28;20033;-69
2020/12/03 03:06:47;;;;;;;17.83;11.95;;;-0.60;98.00;;;;;;5011189;28;20033;-70
2020/12/03 03:09:15;;;;;;;18.67;13.02;;;-0.60;98.00;;;;;;5010349;28;20046;-69
2020/12/03 03:11:41;;;;;;;19.73;12.57;;;-0.60;98.00;;;;;;5010093;28;20080;-69
2020/12/03 03:14:09;;;;;;;17.17;12.18;;;-0.60;98.00;;;;;;5009555;28;20351;-69
2020/12/03 03:16:38;;;;;;;22.48;12.38;;;-0.60;98.00;;;;;;5009595;28;20062;-69
2020/12/03 03:19:09;;;;;;;16.88;12.45;;;-0.60;98.00;;;;;;5009655;28;20049;-69
2020/12/03 03:21:41;;;;;;;19.40;12.35;;;-0.60;98.00;;;;;;5010226;28;20022;-69
2020/12/03 03:24:14;;;;;;;15.57;11.02;;;-0.50;98.00;;;;;;5009865;28;20029;-69
2020/12/03 03:26:45;;;;;;;17.40;12.13;;;-0.50;98.00;;;;;;5010070;28;20093;-69
2020/12/03 03:29:18;;;;;;;15.05;10.77;;;-0.50;98.00;;;;;;5013316;28;20069;-70
2020/12/03 03:31:55;;;;;;;16.77;11.25;;;-0.60;98.00;;;;;;5012425;28;20072;-70
2020/12/03 03:34:23;;;;;;;21.17;12.85;;;-0.60;98.00;;;;;;5014250;28;20026;-70
2020/12/03 03:36:51;;;;;;;17.45;10.80;;;-0.60;98.00;;;;;;5011651;28;20050;-70
2020/12/03 03:39:26;;;;;;;15.05;10.45;;;-0.60;98.00;;;;;;5013224;28;20026;-70
2020/12/03 03:41:57;;;;;;;13.30;9.18;;;-0.60;98.00;;;;;;5013426;28;20117;-70
2020/12/03 03:44:23;;;;;;;15.63;9.73;;;-0.60;98.00;;;;;;5013513;28;20026;-70
2020/12/03 03:46:52;;;;;;;15.50;11.32;;;-0.50;98.00;;;;;;5012214;28;20427;-70
2020/12/03 03:49:20;;;;;;;16.35;11.05;;;-0.50;98.00;;;;;;5013229;28;20065;-69
2020/12/03 03:51:49;;;;;;;15.23;10.30;;;-0.50;98.00;;;;;;5012312;28;20498;-69
2020/12/03 03:54:14;;;;;;;14.23;9.50;;;-0.50;97.90;;;;;;5012992;28;20049;-69
2020/12/03 03:56:42;;;;;;;11.77;8.63;;;-0.50;97.70;;;;;;5012694;28;20091;-69
2020/12/03 03:59:16;;;;;;;13.57;9.13;;;-0.50;97.70;;;;;;5013232;28;20037;-69
2020/12/03 04:01:42;;;;;;;;;;;-0.50;97.50;;;;;;5011300;28;20034;-70
2020/12/03 04:04:08;;;;;;;13.48;8.32;;;-0.50;97.60;;;;;;5013394;28;19940;-70
2020/12/03 04:06:34;;;;;;;12.23;8.32;;;-0.50;96.60;;;;;;5013241;28;20057;-69
2020/12/03 04:09:02;;;;;;;13.73;9.00;;;-0.50;96.30;;;;;;5013639;28;20695;-69
2020/12/03 04:11:31;;;;;;;11.63;7.47;;;-0.40;95.80;;;;;;5013061;28;20057;-69
2020/12/03 04:13:56;;;;;;;12.55;8.45;;;-0.40;95.70;;;;;;5012682;28;20334;-69
2020/12/03 04:16:28;;;;;;;14.20;9.38;;;-0.40;96.10;;;;;;5012838;28;20033;-69
2020/12/03 04:18:53;;;;;;;14.27;9.85;;;-0.40;96.50;;;;;;5013071;28;20038;-70
2020/12/03 04:21:19;;;;;;;14.95;10.35;;;-0.40;96.60;;;;;;5012880;28;20033;-69
2020/12/03 04:23:44;;;;;;;16.92;10.68;;;-0.50;97.00;;;;;;5012593;28;20037;-69
2020/12/03 04:26:13;;;;;;;15.43;10.85;;;-0.50;97.50;;;;;;5012576;28;20120;-69
2020/12/03 04:28:42;;;;;;;14.35;10.38;;;-0.50;97.70;;;;;;5028292;28;20041;-69
2020/12/03 04:31:11;;;;;;;16.95;10.30;;;-0.50;98.00;;;;;;5011122;28;20049;-70
2020/12/03 04:33:37;;;;;;;14.95;10.15;;;-0.50;97.90;;;;;;5012261;28;20053;-69
2020/12/03 04:36:03;;;;;;;13.55;10.00;;;-0.60;97.80;;;;;;5012474;28;20033;-69
2020/12/03 04:38:28;;;;;;;10.85;7.97;;;-0.60;97.50;;;;;;5012358;28;20216;-69
2020/12/03 04:40:58;;;;;;;15.05;8.75;;;-0.60;97.50;;;;;;5012099;28;20022;-69
2020/12/03 04:43:35;;;;;;;13.23;9.27;;;-0.60;96.50;;;;;;5011737;28;20422;-69
2020/12/03 04:46:25;;;;;;;12.23;7.68;;;-0.60;96.30;;;;;;5011410;28;20434;-69
2020/12/03 04:49:33;;;;;;;10.20;7.10;;;-0.50;95.70;;;;;;5010864;28;20053;-70
2020/12/03 04:52:32;;;;;;;10.85;7.70;;;-0.50;95.30;;;;;;5011687;28;20058;-70
2020/12/03 04:55:18;;;;;;;10.60;7.15;;;-0.50;94.90;;;;;;5011068;28;20422;-69
2020/12/03 04:58:11;;;;;;;11.43;7.97;;;-0.40;94.20;;;;;;5027574;28;20058;-69
2020/12/03 05:00:42;;;;;;;13.75;8.45;;;-0.40;94.20;;;;;;5010827;28;20022;-70
2020/12/03 05:03:38;;;;;;;11.35;7.53;;;-0.40;94.10;;;;;;5014348;28;20311;-69
2020/12/03 05:06:33;;;;;;;11.43;7.35;;;-0.30;93.70;;;;;;5013257;28;20057;-69
2020/12/03 05:09:00;;;;;;;11.85;7.50;;;-0.30;94.00;;;;;;5012205;28;20026;-70
2020/12/03 05:11:30;;;;;;;13.68;8.82;;;-0.30;93.90;;;;;;5009038;28;20085;-69
2020/12/03 05:14:11;;;;;;;11.52;8.82;;;-0.30;94.00;;;;;;5011163;28;20049;-69
2020/12/03 05:16:51;;;;;;;12.48;7.85;;;-0.30;93.90;;;;;;5010841;28;20029;-69
2020/12/03 05:19:38;;;;;;;12.75;8.73;;;-0.30;94.20;;;;;;5011183;28;20056;-69
2020/12/03 05:22:27;;;;;;;12.15;8.57;;;-0.40;94.80;;;;;;5012989;28;20052;-69
2020/12/03 05:24:53;;;;;;;14.15;9.20;;;-0.30;94.70;;;;;;5011267;28;20028;-70
2020/12/03 05:27:31;;;;;;;12.85;8.73;;;-0.40;94.80;;;;;;5011501;28;20330;-69
2020/12/03 05:30:03;;;;;;;11.73;8.15;;;-0.40;94.80;;;;;;5012065;28;20044;-70
2020/12/03 05:32:34;;;;;;;11.93;9.18;;;-0.40;95.00;;;;;;5010395;28;20026;-70
2020/12/03 05:35:06;;;;;;;11.32;7.50;;;-0.30;95.10;;;;;;5009087;28;20136;-69
2020/12/03 05:37:34;;;;;;;12.02;8.70;;;-0.30;95.10;;;;;;5010126;28;20057;-70
2020/12/03 05:40:00;;;;;;;13.57;8.65;;;-0.40;95.40;;;;;;5010652;28;20028;-69
2020/12/03 05:42:35;;;;;;;11.68;9.10;;;-0.40;95.80;;;;;;5011267;28;20053;-69
2020/12/03 05:45:15;;;;;;;13.30;9.27;;;-0.30;95.70;;;;;;5011578;28;20026;-69
2020/12/03 05:47:50;;;;;;;12.73;9.52;;;-0.30;95.30;;;;;;5007754;28;20046;-69
2020/12/03 05:50:33;;;;;;;13.77;9.85;;;-0.30;95.60;;;;;;5011081;28;20032;-69
2020/12/03 05:53:21;;;;;;;12.38;8.85;;;-0.30;95.60;;;;;;5010847;28;20030;-70
2020/12/03 05:55:49;;;;;;;12.65;8.75;;;-0.30;95.20;;;;;;5009899;28;20053;-69
2020/12/03 05:58:30;;;;;;;16.60;8.35;;;-0.30;95.10;;;;;;5009983;28;20057;-69
2020/12/03 06:01:28;;;;;;;15.02;9.35;;;-0.30;94.80;;;;;;5009773;28;20045;-70
2020/12/03 06:04:29;;;;;;;16.20;9.85;;;-0.30;95.40;;;;;;4999331;28;20041;-69
2020/12/03 06:07:50;;;;;;;14.55;10.10;;;-0.30;95.40;;;;;;5009663;28;20116;-69
2020/12/03 06:10:48;;;;;;;11.43;8.65;;;-0.40;95.10;;;;;;4986748;28;20038;-69
2020/12/03 06:13:26;;;;;;;14.13;8.13;;;-0.40;95.60;;;;;;5010776;28;20084;-68
2020/12/03 06:16:21;;;;;;;13.38;8.93;;;-0.40;96.10;;;;;;5010059;28;20034;-69
2020/12/03 06:19:15;;;;;;;55.97;28.30;;;-0.50;95.50;;;;;;5010575;28;20153;-67
2020/12/03 06:22:07;;;;;;;22.02;12.55;;;-0.50;95.80;;;;;;5011092;28;20083;-67
2020/12/03 06:25:10;;;;;;;21.48;12.85;;;-0.40;96.10;;;;;;5004516;28;20053;-67
2020/12/03 06:27:42;;;;;;;17.48;11.60;;;-0.40;96.20;;;;;;5010701;28;20030;-67
2020/12/03 06:30:31;;;;;;;17.60;11.63;;;-0.30;96.30;;;;;;5010523;28;20021;-67
2020/12/03 06:33:14;;;;;;;25.80;16.00;;;-0.40;96.00;;;;;;5011553;28;20136;-67
2020/12/03 06:35:58;;;;;;;24.10;15.15;;;-0.40;95.90;;;;;;5010227;28;20022;-67
2020/12/03 06:38:27;;;;;;;24.05;14.77;;;-0.30;95.70;;;;;;5010916;28;20037;-67
2020/12/03 06:41:31;;;;;;;25.50;14.15;;;-0.30;95.90;;;;;;5008220;28;20331;-68
2020/12/03 06:44:23;;;;;;;22.45;12.48;;;-0.40;95.80;;;;;;5010638;28;20030;-67
2020/12/03 06:47:10;;;;;;;17.23;11.45;;;-0.40;95.90;;;;;;5009646;28;20092;-67
2020/12/03 06:50:13;;;;;;;14.25;9.30;;;-0.40;95.90;;;;;;5011026;28;20052;-67
2020/12/03 06:52:48;;;;;;;16.80;9.73;;;-0.40;97.40;;;;;;5010247;28;20033;-67
2020/12/03 06:55:19;;;;;;;11.75;8.63;;;-0.50;98.00;;;;;;5011440;28;20026;-67
2020/12/03 06:58:03;;;;;;;13.82;9.35;;;-0.60;98.00;;;;;;5009883;28;20057;-66
2020/12/03 07:00:29;;;;;;;15.10;10.82;;;-0.60;98.00;;;;;;5009134;28;20037;-67
2020/12/03 07:03:21;;;;;;;13.80;10.40;;;-0.50;98.00;;;;;;5012125;28;20025;-67
2020/12/03 07:06:22;;;;;;;14.45;10.25;;;-0.50;98.00;;;;;;5014288;28;20022;-66
2020/12/03 07:08:56;;;;;;;15.57;10.68;;;-0.30;97.10;;;;;;5015194;28;20032;-67
2020/12/03 07:11:47;;;;;;;17.23;10.50;;;-0.40;97.10;;;;;;5013407;28;20024;-67
2020/12/03 07:14:43;;;;;;;17.17;11.10;;;-0.40;97.00;;;;;;5019275;28;20047;-67
2020/12/03 07:17:42;;;;;;;17.42;12.90;;;-0.40;97.00;;;;;;5018031;28;20068;-67
2020/12/03 07:20:35;;;;;;;19.13;12.30;;;-0.30;97.10;;;;;;5019119;28;20030;-68
2020/12/03 07:23:11;;;;;;;20.85;13.52;;;-0.20;97.00;;;;;;5019039;28;20038;-68
2020/12/03 07:25:40;;;;;;;15.25;11.30;;;-0.20;96.40;;;;;;5018438;28;20400;-69
2020/12/03 07:28:16;;;;;;;25.25;17.13;;;-0.20;96.00;;;;;;5009179;28;20026;-68
2020/12/03 07:30:56;;;;;;;20.83;13.38;;;-0.20;95.90;;;;;;5013403;28;20128;-68
2020/12/03 07:33:47;;;;;;;18.92;14.52;;;-0.20;96.00;;;;;;5018826;28;20021;-69
2020/12/03 07:36:37;;;;;;;31.13;20.95;;;-0.10;95.50;;;;;;5012038;28;20080;-69
2020/12/03 07:39:18;;;;;;;20.90;15.10;;;-0.10;95.70;;;;;;4997898;28;20046;-68
2020/12/03 07:42:12;;;;;;;22.77;15.13;;;-0.10;96.20;;;;;;4997880;28;20027;-68
2020/12/03 07:44:56;;;;;;;22.75;14.48;;;-0.10;95.60;;;;;;4998684;28;20319;-69
2020/12/03 07:47:25;;;;;;;17.98;13.85;;;0.00;95.90;;;;;;4997639;28;20053;-69
2020/12/03 07:49:54;;;;;;;15.25;10.43;;;0.10;96.10;;;;;;4998898;28;20081;-69
2020/12/03 07:52:24;;;;;;;12.40;8.82;;;0.10;95.20;;;;;;4998899;28;20454;-69
2020/12/03 07:54:50;;;;;;;11.60;8.43;;;0.00;92.60;;;;;;4999925;28;20474;-68
2020/12/03 07:57:47;;;;;;;13.00;8.50;;;0.00;91.80;;;;;;5006554;28;20114;-69
2020/12/03 08:00:47;;;;;;;10.43;7.35;;;0.10;91.70;;;;;;5017817;28;20165;-69
2020/12/03 08:03:52;;;;;;;12.40;7.63;;;0.10;91.10;;;;;;5017867;28;20101;-69
2020/12/03 08:06:31;;;;;;;12.38;7.47;;;0.20;90.70;;;;;;5017118;28;20036;-69
2020/12/03 08:08:59;;;;;;;13.25;6.32;;;0.20;90.30;;;;;;5017728;28;20038;-69
2020/12/03 08:11:37;;;;;;;9.75;7.65;;;0.20;90.70;;;;;;5018030;28;20026;-69
2020/12/03 08:14:28;;;;;;;12.52;7.30;;;0.20;90.30;;;;;;5015646;28;20037;-69
2020/12/03 08:16:55;;;;;;;10.80;7.13;;;0.30;90.80;;;;;;5016755;28;20087;-69
2020/12/03 08:19:29;;;;;;;11.63;8.00;;;0.20;90.00;;;;;;5017700;28;20058;-69
2020/12/03 08:21:56;;;;;;;14.90;7.50;;;0.20;90.90;;;;;;5017650;28;20108;-68
2020/12/03 08:24:25;;;;;;;10.55;6.97;;;0.30;90.90;;;;;;5017934;28;20322;-69
2020/12/03 08:27:17;;;;;;;8.32;5.95;;;0.30;89.40;;;;;;5017066;28;20170;-68
2020/12/03 08:29:43;;;;;;;9.43;6.07;;;0.30;88.00;;;;;;5017828;28;20026;-68
2020/12/03 08:32:11;;;;;;;10.40;6.60;;;0.30;88.50;;;;;;5013849;28;20390;-68
2020/12/03 08:34:39;;;;;;;9.88;6.68;;;0.30;88.60;;;;;;5014978;28;20117;-68
2020/12/03 08:37:13;;;;;;;9.18;6.35;;;0.30;88.40;;;;;;5016374;28;20057;-68
2020/12/03 08:39:41;;;;;;;9.63;5.68;;;0.30;87.90;;;;;;5017549;28;20312;-69
2020/12/03 08:42:10;;;;;;;9.27;5.88;;;0.40;87.00;;;;;;5016079;28;20147;-69
2020/12/03 08:44:36;;;;;;;10.88;6.28;;;0.50;87.40;;;;;;5014726;28;20061;-68
2020/12/03 08:47:11;;;;;;;8.75;5.90;;;0.40;87.30;;;;;;5019029;28;20034;-69
2020/12/03 08:49:44;;;;;;;10.63;6.68;;;0.40;87.90;;;;;;5015871;28;20410;-69
2020/12/03 08:52:17;;;;;;;8.77;5.60;;;0.40;87.90;;;;;;5012603;28;20029;-69
2020/12/03 08:54:42;;;;;;;9.70;5.82;;;0.50;87.50;;;;;;5016089;28;20030;-68
2020/12/03 08:57:15;;;;;;;8.85;5.82;;;0.50;87.00;;;;;;5014195;28;20044;-68
2020/12/03 08:59:48;;;;;;;10.50;6.15;;;0.50;87.20;;;;;;5015652;28;20113;-69
2020/12/03 09:02:18;;;;;;;10.15;5.93;;;0.60;87.20;;;;;;5014103;28;20112;-68
2020/12/03 09:04:53;;;;;;;7.85;5.28;;;0.70;87.00;;;;;;5011416;28;20113;-68
2020/12/03 09:07:21;;;;;;;9.65;5.90;;;0.70;86.30;;;;;;5015374;28;20025;-69
2020/12/03 09:09:48;;;;;;;9.98;6.20;;;0.80;85.70;;;;;;5015736;28;20079;-69
2020/12/03 09:12:35;;;;;;;12.45;6.60;;;0.70;86.20;;;;;;5007219;28;20021;-68
2020/12/03 09:15:08;;;;;;;7.70;4.82;;;0.80;86.30;;;;;;5007900;28;20022;-68
2020/12/03 09:17:39;;;;;;;8.85;6.10;;;0.80;86.30;;;;;;5012748;28;20030;-69
2020/12/03 09:20:08;;;;;;;10.27;6.47;;;0.90;86.90;;;;;;5013599;28;20444;-69
2020/12/03 09:22:39;;;;;;;8.98;6.28;;;1.00;86.00;;;;;;4994362;28;20030;-70
2020/12/03 09:25:12;;;;;;;8.63;5.90;;;1.00;85.80;;;;;;4998745;28;20480;-68
2020/12/03 09:27:44;;;;;;;9.23;6.18;;;0.80;85.70;;;;;;5004389;28;20143;-69
2020/12/03 09:30:20;;;;;;;9.82;6.00;;;0.70;86.10;;;;;;5011357;28;20030;-68
2020/12/03 09:32:56;;;;;;;11.93;6.95;;;0.60;86.40;;;;;;5004768;28;20030;-67
2020/12/03 09:35:26;;;;;;;8.30;5.65;;;0.60;87.10;;;;;;5015068;28;20034;-69
2020/12/03 09:37:59;;;;;;;10.07;6.70;;;0.70;86.20;;;;;;5013399;28;20037;-69
2020/12/03 09:40:27;;;;;;;9.07;5.85;;;0.70;85.80;;;;;;5003790;28;20026;-69
2020/12/03 09:42:55;;;;;;;9.52;6.20;;;0.80;86.60;;;;;;4997017;28;20030;-69
2020/12/03 09:45:31;;;;;;;11.85;6.35;;;0.80;85.80;;;;;;5012705;28;20018;-68
2020/12/03 09:47:57;;;;;;;10.68;6.22;;;0.80;86.20;;;;;;5009439;28;20474;-69
2020/12/03 09:50:23;;;;;;;10.55;6.88;;;0.80;86.80;;;;;;5013308;28;20037;-69
2020/12/03 09:52:54;;;;;;;11.27;6.75;;;0.80;86.70;;;;;;5012499;28;20046;-68
2020/12/03 09:55:20;;;;;;;11.68;6.88;;;0.80;86.70;;;;;;5028039;28;20040;-69
2020/12/03 09:57:56;;;;;;;12.32;7.03;;;1.10;87.30;;;;;;5013053;28;20322;-68
2020/12/03 10:00:28;;;;;;;11.00;6.38;;;1.40;87.60;;;;;;5002345;28;20331;-68
2020/12/03 10:03:32;;;;;;;10.77;6.90;;;1.30;87.50;;;;;;5012857;28;20034;-69
2020/12/03 10:06:21;;;;;;;9.48;6.75;;;0.80;86.30;;;;;;5012372;28;20033;-68
2020/12/03 10:09:40;;;;;;;10.45;6.47;;;0.70;87.90;;;;;;5012366;28;20022;-69
2020/12/03 10:12:19;;;;;;;14.05;7.78;;;0.70;88.50;;;;;;4989359;28;20080;-68
2020/12/03 10:15:03;;;;;;;11.55;7.15;;;0.70;88.70;;;;;;4997713;28;20445;-69
2020/12/03 10:17:53;;;;;;;14.73;6.68;;;0.80;89.30;;;;;;5025935;28;20040;-69
2020/12/03 10:20:20;;;;;;;10.35;6.55;;;0.70;89.10;;;;;;5008710;28;20038;-69
2020/12/03 10:23:13;;;;;;;11.18;5.50;;;0.80;89.10;;;;;;5009429;28;20058;-69
2020/12/03 10:26:09;;;;;;;8.82;6.10;;;0.90;89.00;;;;;;5003684;28;20100;-69
2020/12/03 10:28:42;;;;;;;9.23;5.22;;;0.80;88.70;;;;;;5010827;28;20034;-69
2020/12/03 10:31:10;;;;;;;13.43;6.05;;;0.90;89.10;;;;;;5012304;28;20116;-68
2020/12/03 10:33:37;;;;;;;8.90;5.45;;;0.80;89.00;;;;;;5015308;28;20034;-68
2020/12/03 10:36:11;;;;;;;10.52;5.30;;;0.80;89.00;;;;;;5015527;28;20041;-68
2020/12/03 10:38:44;;;;;;;10.50;5.65;;;0.80;89.50;;;;;;5015197;28;20026;-68
2020/12/03 10:41:16;;;;;;;9.23;5.40;;;0.80;89.10;;;;;;5019708;28;20020;-68
2020/12/03 10:43:47;;;;;;;9.45;5.70;;;0.90;89.30;;;;;;5019337;28;20030;-68
2020/12/03 10:46:18;;;;;;;9.50;5.50;;;0.90;89.40;;;;;;5022391;28;20488;-68
2020/12/03 10:48:58;;;;;;;8.82;5.18;;;0.90;89.50;;;;;;5010261;28;20057;-68
2020/12/03 10:51:27;;;;;;;12.00;5.40;;;0.80;89.20;;;;;;5010591;28;20373;-69
2020/12/03 10:53:53;;;;;;;10.93;6.85;;;0.80;89.80;;;;;;4998898;28;20034;-69
2020/12/03 10:56:30;;;;;;;10.38;6.18;;;0.90;89.90;;;;;;5010079;28;20018;-69
2020/12/03 10:59:11;;;;;;;8.68;5.50;;;1.10;90.50;;;;;;5015160;28;20080;-69
2020/12/03 11:01:42;;;;;;;9.90;6.07;;;1.20;89.60;;;;;;5017634;28;20028;-70
2020/12/03 11:04:14;;;;;;;8.85;5.50;;;1.10;89.40;;;;;;5015125;28;20018;-70
2020/12/03 11:06:43;;;;;;;9.60;6.25;;;1.20;89.90;;;;;;5018332;28;20326;-69
2020/12/03 11:09:18;;;;;;;8.43;5.80;;;1.20;89.60;;;;;;5017932;28;20025;-68
2020/12/03 11:11:45;;;;;;;8.65;6.07;;;1.20;89.60;;;;;;5018991;28;20030;-68
2020/12/03 11:14:13;;;;;;;10.73;6.78;;;1.20;90.30;;;;;;5018792;28;20029;-69
2020/12/03 11:16:44;;;;;;;11.35;7.15;;;1.30;90.10;;;;;;5016494;28;20422;-69
2020/12/03 11:19:15;;;;;;;10.45;6.55;;;1.30;90.20;;;;;;5018879;28;20326;-69
2020/12/03 11:21:47;;;;;;;11.70;7.53;;;1.30;90.10;;;;;;5018876;28;20018;-69
2020/12/03 11:24:43;;;;;;;13.05;7.30;;;1.30;90.20;;;;;;5018930;28;20026;-69
2020/12/03 11:27:10;;;;;;;10.80;7.53;;;1.20;90.30;;;;;;5005988;28;20041;-69
2020/12/03 11:29:37;;;;;;;10.82;7.35;;;1.30;91.10;;;;;;5018984;28;20018;-68
2020/12/03 11:32:03;;;;;;;10.25;7.10;;;1.40;90.50;;;;;;5016936;28;20076;-68
2020/12/03 11:34:38;;;;;;;10.15;6.68;;;1.50;90.80;;;;;;5018671;28;20034;-69
2020/12/03 11:37:08;;;;;;;14.18;7.57;;;1.60;89.90;;;;;;5013858;28;20038;-68
2020/12/03 11:39:33;;;;;;;11.18;7.15;;;1.60;90.00;;;;;;5020554;28;20033;-69
2020/12/03 11:42:26;;;;;;;12.43;7.93;;;1.60;90.50;;;;;;5017042;28;20028;-68
2020/12/03 11:45:16;;;;;;;13.43;8.50;;;1.60;90.20;;;;;;5017964;28;20025;-68
2020/12/03 11:50:37;;;;;;;14.35;7.90;;;1.60;91.00;;;;;;5018466;28;20037;-68
2020/12/03 11:53:05;;;;;;;13.15;8.55;;;1.60;91.00;;;;;;4998693;28;20034;-68
2020/12/03 11:55:38;;;;;;;14.77;8.57;;;1.70;90.60;;;;;;4999100;28;20097;-68
2020/12/03 11:58:08;;;;;;;12.60;8.35;;;1.90;90.80;;;;;;4998736;28;20053;-68
2020/12/03 12:00:35;;;;;;;14.38;8.88;;;2.20;90.00;;;;;;5007708;28;20046;-69
2020/12/03 12:03:07;;;;;;;14.43;7.75;;;2.20;89.50;;;;;;5017765;28;20041;-68
2020/12/03 12:08:10;;;;;;;13.57;8.93;;;2.30;90.80;;;;;;5013532;28;20080;-69
2020/12/03 12:13:16;;;;;;;13.43;8.57;;;2.40;90.10;;;;;;5017348;28;20045;-69
2020/12/03 12:15:42;;;;;;;14.05;9.73;;;2.40;89.70;;;;;;5015588;28;20034;-69
2020/12/03 12:18:13;;;;;;;13.88;9.43;;;2.40;89.70;;;;;;5017245;28;20033;-69
2020/12/03 12:20:42;;;;;;;15.60;9.60;;;2.40;90.60;;;;;;5017900;28;20072;-69
2020/12/03 12:23:08;;;;;;;15.95;10.50;;;2.50;91.20;;;;;;5017781;28;20053;-69
2020/12/03 12:25:34;;;;;;;18.05;10.50;;;2.40;90.80;;;;;;5017599;28;20375;-69
2020/12/03 12:27:59;;;;;;;17.08;10.93;;;2.50;91.30;;;;;;5016561;28;20022;-69
2020/12/03 12:30:32;;;;;;;14.98;10.13;;;2.60;90.50;;;;;;5021594;28;20052;-69
2020/12/03 12:32:58;;;;;;;16.77;9.55;;;2.40;89.60;;;;;;5020824;28;20065;-69
2020/12/03 12:35:24;;;;;;;14.50;9.25;;;2.30;90.50;;;;;;5009484;28;20366;-69
2020/12/03 12:37:50;;;;;;;15.13;8.90;;;2.30;90.30;;;;;;5020447;28;20450;-69
2020/12/03 12:40:16;;;;;;;17.92;10.73;;;2.30;90.30;;;;;;5001185;28;20062;-69
2020/12/03 12:42:47;;;;;;;14.18;10.07;;;2.30;90.50;;;;;;4995252;28;20109;-69
2020/12/03 12:45:12;;;;;;;15.52;9.57;;;2.40;91.10;;;;;;5000729;28;20071;-69
2020/12/03 12:47:38;;;;;;;15.15;9.63;;;2.50;90.70;;;;;;4993958;28;20138;-68
2020/12/03 12:50:04;;;;;;;14.88;9.05;;;2.40;90.40;;;;;;5003454;28;20040;-68
2020/12/03 12:52:30;;;;;;;15.45;9.88;;;2.60;91.20;;;;;;5013353;28;20109;-69
2020/12/03 12:54:56;;;;;;;16.13;10.65;;;2.60;89.90;;;;;;5008888;28;20109;-69
2020/12/03 12:57:22;;;;;;;16.58;9.82;;;2.60;90.10;;;;;;4994845;28;20076;-69
2020/12/03 12:59:48;;;;;;;13.02;9.32;;;2.80;90.50;;;;;;5008530;28;20038;-69
2020/12/03 13:02:15;;;;;;;13.10;9.25;;;2.80;90.00;;;;;;5031877;28;20025;-69
2020/12/03 13:04:43;;;;;;;14.20;9.73;;;2.80;90.00;;;;;;5024524;28;20100;-69
2020/12/03 13:07:09;;;;;;;12.60;9.43;;;2.70;90.00;;;;;;5014249;28;20026;-69
2020/12/03 13:09:35;;;;;;;13.63;8.70;;;2.80;90.50;;;;;;5014120;28;20789;-69
2020/12/03 13:12:04;;;;;;;14.57;8.77;;;2.80;91.00;;;;;;5014221;28;20747;-69
2020/12/03 13:14:33;;;;;;;12.63;8.65;;;2.90;90.50;;;;;;5012500;28;20040;-70
2020/12/03 13:16:58;;;;;;;14.82;9.52;;;2.90;89.80;;;;;;5001350;28;20101;-70
2020/12/03 13:19:24;;;;;;;14.63;9.35;;;2.70;90.10;;;;;;5010186;28;20022;-70
2020/12/03 13:21:52;;;;;;;12.65;8.93;;;2.70;90.80;;;;;;5016860;28;20030;-69